sensor_id;sensor_type;location;lat;lon;timestamp;temperature;humidity
37658;DHT22;23500;53.268;8.308;2023-07-30T00:01:42;21.80;76.50
37658;DHT22;23500;53.268;8.308;2023-07-30T00:04:08;21.70;76.50
37658;DHT22;23500;53.268;8.308;2023-07-30T00:06:34;21.80;76.60
37658;DHT22;23500;53.268;8.308;2023-07-30T00:09:00;21.70;76.50
37658;DHT22;23500;53.268;8.308;2023-07-30T00:11:25;21.70;76.60
37658;DHT22;23500;53.268;8.308;2023-07-30T00:13:51;21.70;76.50
37658;DHT22;23500;53.268;8.308;2023-07-30T00:16:16;21.70;76.50
37658;DHT22;23500;53.268;8.308;2023-07-30T00:18:42;21.70;76.60
37658;DHT22;23500;53.268;8.308;2023-07-30T00:21:08;21.70;76.80
37658;DHT22;23500;53.268;8.308;2023-07-30T00:23:33;21.70;76.70
37658;DHT22;23500;53.268;8.308;2023-07-30T00:25:59;21.70;76.60
37658;DHT22;23500;53.268;8.308;2023-07-30T00:28:25;21.70;76.70
37658;DHT22;23500;53.268;8.308;2023-07-30T00:30:50;21.70;76.60
37658;DHT22;23500;53.268;8.308;2023-07-30T00:33:16;21.70;76.70
37658;DHT22;23500;53.268;8.308;2023-07-30T00:35:41;21.70;76.70
37658;DHT22;23500;53.268;8.308;2023-07-30T00:38:07;21.70;76.80
37658;DHT22;23500;53.268;8.308;2023-07-30T00:40:33;21.60;76.80
37658;DHT22;23500;53.268;8.308;2023-07-30T00:43:04;21.60;76.80
37658;DHT22;23500;53.268;8.308;2023-07-30T00:45:30;21.60;76.80
37658;DHT22;23500;53.268;8.308;2023-07-30T00:47:55;21.60;76.90
37658;DHT22;23500;53.268;8.308;2023-07-30T00:50:21;21.60;76.80
37658;DHT22;23500;53.268;8.308;2023-07-30T00:52:47;21.60;76.90
37658;DHT22;23500;53.268;8.308;2023-07-30T00:55:14;21.60;76.80
37658;DHT22;23500;53.268;8.308;2023-07-30T00:57:41;21.60;76.80
37658;DHT22;23500;53.268;8.308;2023-07-30T01:00:08;21.60;76.90
37658;DHT22;23500;53.268;8.308;2023-07-30T01:02:36;21.60;76.80
37658;DHT22;23500;53.268;8.308;2023-07-30T01:05:02;21.60;76.70
37658;DHT22;23500;53.268;8.308;2023-07-30T01:07:31;21.60;76.70
37658;DHT22;23500;53.268;8.308;2023-07-30T01:09:58;21.60;76.80
37658;DHT22;23500;53.268;8.308;2023-07-30T01:12:24;21.60;76.60
37658;DHT22;23500;53.268;8.308;2023-07-30T01:14:50;21.50;76.80
37658;DHT22;23500;53.268;8.308;2023-07-30T01:17:16;21.60;76.70
37658;DHT22;23500;53.268;8.308;2023-07-30T01:19:43;21.50;76.70
37658;DHT22;23500;53.268;8.308;2023-07-30T01:22:09;21.50;76.50
37658;DHT22;23500;53.268;8.308;2023-07-30T01:24:34;21.50;76.60
37658;DHT22;23500;53.268;8.308;2023-07-30T01:27:07;21.50;76.70
37658;DHT22;23500;53.268;8.308;2023-07-30T01:29:48;21.50;76.70
37658;DHT22;23500;53.268;8.308;2023-07-30T01:32:17;21.50;76.70
37658;DHT22;23500;53.268;8.308;2023-07-30T01:34:46;21.50;76.50
37658;DHT22;23500;53.268;8.308;2023-07-30T01:37:12;21.50;76.60
37658;DHT22;23500;53.268;8.308;2023-07-30T01:39:40;21.50;76.50
37658;DHT22;23500;53.268;8.308;2023-07-30T01:42:08;21.50;76.70
37658;DHT22;23500;53.268;8.308;2023-07-30T01:44:33;21.50;76.60
37658;DHT22;23500;53.268;8.308;2023-07-30T01:46:59;21.50;76.50
37658;DHT22;23500;53.268;8.308;2023-07-30T01:49:24;21.40;76.40
37658;DHT22;23500;53.268;8.308;2023-07-30T01:51:50;21.40;76.50
37658;DHT22;23500;53.268;8.308;2023-07-30T01:54:16;21.40;76.50
37658;DHT22;23500;53.268;8.308;2023-07-30T01:56:41;21.40;77.20
37658;DHT22;23500;53.268;8.308;2023-07-30T01:59:07;21.40;76.40
37658;DHT22;23500;53.268;8.308;2023-07-30T02:01:32;21.40;76.60
37658;DHT22;23500;53.268;8.308;2023-07-30T02:03:58;21.40;76.50
37658;DHT22;23500;53.268;8.308;2023-07-30T02:06:24;21.40;76.40
37658;DHT22;23500;53.268;8.308;2023-07-30T02:08:49;21.40;76.40
37658;DHT22;23500;53.268;8.308;2023-07-30T02:11:15;21.40;76.40
37658;DHT22;23500;53.268;8.308;2023-07-30T02:13:41;21.40;76.50
37658;DHT22;23500;53.268;8.308;2023-07-30T02:16:07;21.40;76.40
37658;DHT22;23500;53.268;8.308;2023-07-30T02:18:33;21.30;76.40
37658;DHT22;23500;53.268;8.308;2023-07-30T02:20:59;21.30;76.50
37658;DHT22;23500;53.268;8.308;2023-07-30T02:23:24;21.30;76.50
37658;DHT22;23500;53.268;8.308;2023-07-30T02:25:50;21.30;76.50
37658;DHT22;23500;53.268;8.308;2023-07-30T02:28:16;21.30;76.50
37658;DHT22;23500;53.268;8.308;2023-07-30T02:30:42;21.30;76.60
37658;DHT22;23500;53.268;8.308;2023-07-30T02:33:07;21.30;77.20
37658;DHT22;23500;53.268;8.308;2023-07-30T02:35:33;21.30;76.30
37658;DHT22;23500;53.268;8.308;2023-07-30T02:37:58;21.30;76.30
37658;DHT22;23500;53.268;8.308;2023-07-30T02:40:24;21.30;76.20
37658;DHT22;23500;53.268;8.308;2023-07-30T02:42:50;21.30;76.30
37658;DHT22;23500;53.268;8.308;2023-07-30T02:45:15;21.30;76.30
37658;DHT22;23500;53.268;8.308;2023-07-30T02:47:41;21.30;76.60
37658;DHT22;23500;53.268;8.308;2023-07-30T02:50:08;21.30;76.60
37658;DHT22;23500;53.268;8.308;2023-07-30T02:52:34;21.20;76.60
37658;DHT22;23500;53.268;8.308;2023-07-30T02:54:59;21.30;77.10
37658;DHT22;23500;53.268;8.308;2023-07-30T02:57:25;21.20;76.50
37658;DHT22;23500;53.268;8.308;2023-07-30T02:59:51;21.20;76.40
37658;DHT22;23500;53.268;8.308;2023-07-30T03:02:16;21.20;76.80
37658;DHT22;23500;53.268;8.308;2023-07-30T03:04:42;21.20;76.80
37658;DHT22;23500;53.268;8.308;2023-07-30T03:07:09;21.20;76.80
37658;DHT22;23500;53.268;8.308;2023-07-30T03:09:34;21.20;76.80
37658;DHT22;23500;53.268;8.308;2023-07-30T03:12:00;21.20;77.10
37658;DHT22;23500;53.268;8.308;2023-07-30T03:14:26;21.20;76.80
37658;DHT22;23500;53.268;8.308;2023-07-30T03:16:52;21.20;77.00
37658;DHT22;23500;53.268;8.308;2023-07-30T03:19:18;21.20;77.00
37658;DHT22;23500;53.268;8.308;2023-07-30T03:21:43;21.20;77.00
37658;DHT22;23500;53.268;8.308;2023-07-30T03:24:09;21.20;76.80
37658;DHT22;23500;53.268;8.308;2023-07-30T03:26:35;21.20;77.20
37658;DHT22;23500;53.268;8.308;2023-07-30T03:29:00;21.20;76.70
37658;DHT22;23500;53.268;8.308;2023-07-30T03:31:26;21.20;76.90
37658;DHT22;23500;53.268;8.308;2023-07-30T03:33:54;21.20;77.00
37658;DHT22;23500;53.268;8.308;2023-07-30T03:36:19;21.10;77.10
37658;DHT22;23500;53.268;8.308;2023-07-30T03:38:45;21.10;77.00
37658;DHT22;23500;53.268;8.308;2023-07-30T03:41:11;21.10;76.90
37658;DHT22;23500;53.268;8.308;2023-07-30T03:43:37;21.10;77.20
37658;DHT22;23500;53.268;8.308;2023-07-30T03:46:03;21.10;77.10
37658;DHT22;23500;53.268;8.308;2023-07-30T03:48:29;21.10;77.20
37658;DHT22;23500;53.268;8.308;2023-07-30T03:50:55;21.10;77.00
37658;DHT22;23500;53.268;8.308;2023-07-30T03:53:21;21.10;76.90
37658;DHT22;23500;53.268;8.308;2023-07-30T03:55:47;21.10;77.10
37658;DHT22;23500;53.268;8.308;2023-07-30T03:58:13;21.10;76.90
37658;DHT22;23500;53.268;8.308;2023-07-30T04:00:39;21.10;77.00
37658;DHT22;23500;53.268;8.308;2023-07-30T04:03:05;21.20;76.80
37658;DHT22;23500;53.268;8.308;2023-07-30T04:05:31;21.20;76.70
37658;DHT22;23500;53.268;8.308;2023-07-30T04:07:56;21.20;77.60
37658;DHT22;23500;53.268;8.308;2023-07-30T04:10:22;21.20;76.70
37658;DHT22;23500;53.268;8.308;2023-07-30T04:12:48;21.20;76.80
37658;DHT22;23500;53.268;8.308;2023-07-30T04:15:17;21.20;76.80
37658;DHT22;23500;53.268;8.308;2023-07-30T04:17:42;21.20;76.80
37658;DHT22;23500;53.268;8.308;2023-07-30T04:20:09;21.20;76.60
37658;DHT22;23500;53.268;8.308;2023-07-30T04:22:36;21.20;76.50
37658;DHT22;23500;53.268;8.308;2023-07-30T04:25:02;21.30;76.50
37658;DHT22;23500;53.268;8.308;2023-07-30T04:27:28;21.30;76.30
37658;DHT22;23500;53.268;8.308;2023-07-30T04:29:53;21.30;76.10
37658;DHT22;23500;53.268;8.308;2023-07-30T04:32:19;21.30;76.10
37658;DHT22;23500;53.268;8.308;2023-07-30T04:34:45;21.30;76.00
37658;DHT22;23500;53.268;8.308;2023-07-30T04:37:10;21.40;75.90
37658;DHT22;23500;53.268;8.308;2023-07-30T04:39:36;21.50;75.60
37658;DHT22;23500;53.268;8.308;2023-07-30T04:42:02;21.60;75.30
37658;DHT22;23500;53.268;8.308;2023-07-30T04:44:28;21.70;75.00
37658;DHT22;23500;53.268;8.308;2023-07-30T04:46:54;21.70;74.80
37658;DHT22;23500;53.268;8.308;2023-07-30T04:49:20;21.70;74.50
37658;DHT22;23500;53.268;8.308;2023-07-30T04:51:45;21.70;74.60
37658;DHT22;23500;53.268;8.308;2023-07-30T04:54:11;21.70;74.40
37658;DHT22;23500;53.268;8.308;2023-07-30T04:56:37;21.70;74.50
37658;DHT22;23500;53.268;8.308;2023-07-30T04:59:03;21.70;74.60
37658;DHT22;23500;53.268;8.308;2023-07-30T05:01:28;21.70;74.70
37658;DHT22;23500;53.268;8.308;2023-07-30T05:03:54;21.70;74.50
37658;DHT22;23500;53.268;8.308;2023-07-30T05:06:20;21.70;74.20
37658;DHT22;23500;53.268;8.308;2023-07-30T05:08:46;21.80;74.10
37658;DHT22;23500;53.268;8.308;2023-07-30T05:11:11;21.70;74.10
37658;DHT22;23500;53.268;8.308;2023-07-30T05:13:37;21.70;74.20
37658;DHT22;23500;53.268;8.308;2023-07-30T05:16:03;21.70;74.30
37658;DHT22;23500;53.268;8.308;2023-07-30T05:18:28;21.70;73.90
37658;DHT22;23500;53.268;8.308;2023-07-30T05:20:55;21.80;73.80
37658;DHT22;23500;53.268;8.308;2023-07-30T05:23:20;21.80;73.90
37658;DHT22;23500;53.268;8.308;2023-07-30T05:25:46;21.80;73.70
37658;DHT22;23500;53.268;8.308;2023-07-30T05:28:12;21.80;73.80
37658;DHT22;23500;53.268;8.308;2023-07-30T05:30:38;21.80;73.60
37658;DHT22;23500;53.268;8.308;2023-07-30T05:33:03;21.90;73.40
37658;DHT22;23500;53.268;8.308;2023-07-30T05:35:29;21.90;73.10
37658;DHT22;23500;53.268;8.308;2023-07-30T05:37:55;22.00;73.30
37658;DHT22;23500;53.268;8.308;2023-07-30T05:40:21;22.00;73.00
37658;DHT22;23500;53.268;8.308;2023-07-30T05:42:47;22.00;73.10
37658;DHT22;23500;53.268;8.308;2023-07-30T05:45:13;22.10;73.40
37658;DHT22;23500;53.268;8.308;2023-07-30T05:47:38;22.10;73.40
37658;DHT22;23500;53.268;8.308;2023-07-30T05:50:05;22.10;73.20
37658;DHT22;23500;53.268;8.308;2023-07-30T05:52:31;22.10;72.90
37658;DHT22;23500;53.268;8.308;2023-07-30T05:54:57;22.10;72.90
37658;DHT22;23500;53.268;8.308;2023-07-30T05:57:22;22.20;73.60
37658;DHT22;23500;53.268;8.308;2023-07-30T05:59:48;22.20;73.50
37658;DHT22;23500;53.268;8.308;2023-07-30T06:02:13;22.30;73.60
37658;DHT22;23500;53.268;8.308;2023-07-30T06:04:39;22.40;73.30
37658;DHT22;23500;53.268;8.308;2023-07-30T06:07:05;22.50;73.10
37658;DHT22;23500;53.268;8.308;2023-07-30T06:09:31;22.70;72.80
37658;DHT22;23500;53.268;8.308;2023-07-30T06:11:57;22.70;72.50
37658;DHT22;23500;53.268;8.308;2023-07-30T06:14:23;22.80;72.30
37658;DHT22;23500;53.268;8.308;2023-07-30T06:16:49;22.80;72.10
37658;DHT22;23500;53.268;8.308;2023-07-30T06:19:15;22.90;72.00
37658;DHT22;23500;53.268;8.308;2023-07-30T06:21:40;23.00;71.90
37658;DHT22;23500;53.268;8.308;2023-07-30T06:24:06;22.90;71.90
37658;DHT22;23500;53.268;8.308;2023-07-30T06:26:32;22.90;71.90
37658;DHT22;23500;53.268;8.308;2023-07-30T06:28:58;23.00;71.80
37658;DHT22;23500;53.268;8.308;2023-07-30T06:31:24;23.10;71.60
37658;DHT22;23500;53.268;8.308;2023-07-30T06:33:49;23.10;71.40
37658;DHT22;23500;53.268;8.308;2023-07-30T06:36:15;23.10;71.40
37658;DHT22;23500;53.268;8.308;2023-07-30T06:38:41;23.10;71.40
37658;DHT22;23500;53.268;8.308;2023-07-30T06:41:07;23.00;71.40
37658;DHT22;23500;53.268;8.308;2023-07-30T06:43:32;23.00;71.60
37658;DHT22;23500;53.268;8.308;2023-07-30T06:45:58;23.00;71.60
37658;DHT22;23500;53.268;8.308;2023-07-30T06:48:24;23.00;71.80
37658;DHT22;23500;53.268;8.308;2023-07-30T06:50:49;22.90;71.80
37658;DHT22;23500;53.268;8.308;2023-07-30T06:53:15;22.90;71.80
37658;DHT22;23500;53.268;8.308;2023-07-30T06:55:41;23.00;71.80
37658;DHT22;23500;53.268;8.308;2023-07-30T06:58:06;23.00;71.70
37658;DHT22;23500;53.268;8.308;2023-07-30T07:00:32;22.90;71.70
37658;DHT22;23500;53.268;8.308;2023-07-30T07:02:58;22.90;71.80
37658;DHT22;23500;53.268;8.308;2023-07-30T07:05:24;22.90;71.80
37658;DHT22;23500;53.268;8.308;2023-07-30T07:07:49;22.90;71.80
37658;DHT22;23500;53.268;8.308;2023-07-30T07:10:15;22.90;71.80
37658;DHT22;23500;53.268;8.308;2023-07-30T07:12:41;22.90;71.80
37658;DHT22;23500;53.268;8.308;2023-07-30T07:15:07;22.90;71.90
37658;DHT22;23500;53.268;8.308;2023-07-30T07:17:33;22.90;71.80
37658;DHT22;23500;53.268;8.308;2023-07-30T07:19:58;23.00;71.80
37658;DHT22;23500;53.268;8.308;2023-07-30T07:22:24;23.00;71.70
37658;DHT22;23500;53.268;8.308;2023-07-30T07:24:51;23.00;71.60
37658;DHT22;23500;53.268;8.308;2023-07-30T07:27:20;23.10;71.50
37658;DHT22;23500;53.268;8.308;2023-07-30T07:29:46;23.10;71.40
37658;DHT22;23500;53.268;8.308;2023-07-30T07:32:12;23.10;71.50
37658;DHT22;23500;53.268;8.308;2023-07-30T07:34:37;23.10;71.50
37658;DHT22;23500;53.268;8.308;2023-07-30T07:37:03;23.10;71.50
37658;DHT22;23500;53.268;8.308;2023-07-30T07:39:29;23.00;71.50
37658;DHT22;23500;53.268;8.308;2023-07-30T07:41:55;23.00;71.50
37658;DHT22;23500;53.268;8.308;2023-07-30T07:44:21;23.00;71.50
37658;DHT22;23500;53.268;8.308;2023-07-30T07:46:47;23.00;71.50
37658;DHT22;23500;53.268;8.308;2023-07-30T07:49:13;23.00;71.70
37658;DHT22;23500;53.268;8.308;2023-07-30T07:51:39;22.90;71.70
37658;DHT22;23500;53.268;8.308;2023-07-30T07:54:05;22.90;71.90
37658;DHT22;23500;53.268;8.308;2023-07-30T07:56:31;22.90;72.00
37658;DHT22;23500;53.268;8.308;2023-07-30T07:58:57;22.80;72.00
37658;DHT22;23500;53.268;8.308;2023-07-30T08:01:23;22.80;72.00
37658;DHT22;23500;53.268;8.308;2023-07-30T08:03:49;22.90;72.70
37658;DHT22;23500;53.268;8.308;2023-07-30T08:06:14;22.90;72.00
37658;DHT22;23500;53.268;8.308;2023-07-30T08:08:40;22.80;71.90
37658;DHT22;23500;53.268;8.308;2023-07-30T08:11:07;22.80;72.10
37658;DHT22;23500;53.268;8.308;2023-07-30T08:13:33;22.80;72.10
37658;DHT22;23500;53.268;8.308;2023-07-30T08:15:59;22.70;72.90
37658;DHT22;23500;53.268;8.308;2023-07-30T08:18:24;22.70;72.30
37658;DHT22;23500;53.268;8.308;2023-07-30T08:20:50;22.70;72.40
37658;DHT22;23500;53.268;8.308;2023-07-30T08:23:16;22.60;72.50
37658;DHT22;23500;53.268;8.308;2023-07-30T08:25:41;22.60;72.60
37658;DHT22;23500;53.268;8.308;2023-07-30T08:28:07;22.60;72.60
37658;DHT22;23500;53.268;8.308;2023-07-30T08:30:33;22.60;72.70
37658;DHT22;23500;53.268;8.308;2023-07-30T08:32:59;22.50;72.70
37658;DHT22;23500;53.268;8.308;2023-07-30T08:35:24;22.50;72.80
37658;DHT22;23500;53.268;8.308;2023-07-30T08:37:52;22.50;72.80
37658;DHT22;23500;53.268;8.308;2023-07-30T08:40:20;22.50;72.90
37658;DHT22;23500;53.268;8.308;2023-07-30T08:42:46;22.50;72.90
37658;DHT22;23500;53.268;8.308;2023-07-30T08:45:11;22.50;72.90
37658;DHT22;23500;53.268;8.308;2023-07-30T08:47:39;22.50;72.90
37658;DHT22;23500;53.268;8.308;2023-07-30T08:50:06;22.50;72.90
37658;DHT22;23500;53.268;8.308;2023-07-30T08:52:32;22.40;72.90
37658;DHT22;23500;53.268;8.308;2023-07-30T08:55:00;22.50;73.00
37658;DHT22;23500;53.268;8.308;2023-07-30T08:57:29;22.50;72.80
37658;DHT22;23500;53.268;8.308;2023-07-30T09:00:05;22.50;72.70
37658;DHT22;23500;53.268;8.308;2023-07-30T09:02:41;22.60;72.50
37658;DHT22;23500;53.268;8.308;2023-07-30T09:05:08;22.60;72.40
37658;DHT22;23500;53.268;8.308;2023-07-30T09:07:34;22.70;72.30
37658;DHT22;23500;53.268;8.308;2023-07-30T09:10:00;22.70;72.30
37658;DHT22;23500;53.268;8.308;2023-07-30T09:12:28;22.70;72.20
37658;DHT22;23500;53.268;8.308;2023-07-30T09:14:54;22.70;72.20
37658;DHT22;23500;53.268;8.308;2023-07-30T09:17:20;22.70;72.20
37658;DHT22;23500;53.268;8.308;2023-07-30T09:19:45;22.70;72.10
37658;DHT22;23500;53.268;8.308;2023-07-30T09:22:29;22.70;72.00
37658;DHT22;23500;53.268;8.308;2023-07-30T09:24:56;22.70;72.00
37658;DHT22;23500;53.268;8.308;2023-07-30T09:27:25;22.70;72.00
37658;DHT22;23500;53.268;8.308;2023-07-30T09:29:53;22.70;72.00
37658;DHT22;23500;53.268;8.308;2023-07-30T09:32:19;22.70;72.00
37658;DHT22;23500;53.268;8.308;2023-07-30T09:34:45;22.70;72.00
37658;DHT22;23500;53.268;8.308;2023-07-30T09:37:12;22.70;72.00
37658;DHT22;23500;53.268;8.308;2023-07-30T09:39:38;22.70;72.00
37658;DHT22;23500;53.268;8.308;2023-07-30T09:42:05;22.70;72.10
37658;DHT22;23500;53.268;8.308;2023-07-30T09:44:32;22.70;72.20
37658;DHT22;23500;53.268;8.308;2023-07-30T09:47:00;22.70;72.10
37658;DHT22;23500;53.268;8.308;2023-07-30T09:49:30;22.70;72.20
37658;DHT22;23500;53.268;8.308;2023-07-30T09:51:57;22.70;72.10
37658;DHT22;23500;53.268;8.308;2023-07-30T09:54:23;22.70;72.20
37658;DHT22;23500;53.268;8.308;2023-07-30T09:56:49;22.70;72.00
37658;DHT22;23500;53.268;8.308;2023-07-30T09:59:15;22.70;72.00
37658;DHT22;23500;53.268;8.308;2023-07-30T10:01:49;22.80;71.90
37658;DHT22;23500;53.268;8.308;2023-07-30T10:04:19;22.80;71.80
37658;DHT22;23500;53.268;8.308;2023-07-30T10:06:46;22.80;71.70
37658;DHT22;23500;53.268;8.308;2023-07-30T10:09:13;22.80;71.70
37658;DHT22;23500;53.268;8.308;2023-07-30T10:11:41;22.80;71.70
37658;DHT22;23500;53.268;8.308;2023-07-30T10:14:08;22.80;71.80
37658;DHT22;23500;53.268;8.308;2023-07-30T10:16:34;22.80;71.70
37658;DHT22;23500;53.268;8.308;2023-07-30T10:18:59;22.80;71.70
37658;DHT22;23500;53.268;8.308;2023-07-30T10:21:26;22.80;71.80
37658;DHT22;23500;53.268;8.308;2023-07-30T10:26:29;22.70;72.10
37658;DHT22;23500;53.268;8.308;2023-07-30T10:31:47;22.60;72.20
37658;DHT22;23500;53.268;8.308;2023-07-30T10:34:13;22.60;72.40
37658;DHT22;23500;53.268;8.308;2023-07-30T10:36:46;22.60;72.40
37658;DHT22;23500;53.268;8.308;2023-07-30T10:39:20;22.60;72.50
37658;DHT22;23500;53.268;8.308;2023-07-30T10:41:51;22.60;72.30
37658;DHT22;23500;53.268;8.308;2023-07-30T10:44:31;22.60;72.30
37658;DHT22;23500;53.268;8.308;2023-07-30T10:46:58;22.60;72.10
37658;DHT22;23500;53.268;8.308;2023-07-30T10:49:24;22.60;72.10
37658;DHT22;23500;53.268;8.308;2023-07-30T10:51:55;22.60;72.20
37658;DHT22;23500;53.268;8.308;2023-07-30T10:54:21;22.60;72.30
37658;DHT22;23500;53.268;8.308;2023-07-30T10:56:47;22.50;72.30
37658;DHT22;23500;53.268;8.308;2023-07-30T10:59:14;22.50;72.50
37658;DHT22;23500;53.268;8.308;2023-07-30T11:01:44;22.50;72.50
37658;DHT22;23500;53.268;8.308;2023-07-30T11:04:15;22.50;72.70
37658;DHT22;23500;53.268;8.308;2023-07-30T11:06:48;22.50;72.70
37658;DHT22;23500;53.268;8.308;2023-07-30T11:09:25;22.40;72.70
37658;DHT22;23500;53.268;8.308;2023-07-30T11:11:52;22.40;72.80
37658;DHT22;23500;53.268;8.308;2023-07-30T11:14:19;22.40;72.80
37658;DHT22;23500;53.268;8.308;2023-07-30T11:16:50;22.40;72.90
37658;DHT22;23500;53.268;8.308;2023-07-30T11:19:16;22.40;72.90
37658;DHT22;23500;53.268;8.308;2023-07-30T11:21:46;22.40;73.00
37658;DHT22;23500;53.268;8.308;2023-07-30T11:24:12;22.40;73.10
37658;DHT22;23500;53.268;8.308;2023-07-30T11:26:38;22.30;72.90
37658;DHT22;23500;53.268;8.308;2023-07-30T11:31:43;22.30;72.90
37658;DHT22;23500;53.268;8.308;2023-07-30T11:34:09;22.30;72.90
37658;DHT22;23500;53.268;8.308;2023-07-30T11:36:35;22.30;72.90
37658;DHT22;23500;53.268;8.308;2023-07-30T11:39:01;22.30;72.90
37658;DHT22;23500;53.268;8.308;2023-07-30T11:41:27;22.30;73.10
37658;DHT22;23500;53.268;8.308;2023-07-30T11:43:54;22.30;73.10
37658;DHT22;23500;53.268;8.308;2023-07-30T11:46:20;22.30;73.10
37658;DHT22;23500;53.268;8.308;2023-07-30T11:48:49;22.30;73.10
37658;DHT22;23500;53.268;8.308;2023-07-30T11:51:26;22.30;73.10
37658;DHT22;23500;53.268;8.308;2023-07-30T11:53:54;22.30;73.30
37658;DHT22;23500;53.268;8.308;2023-07-30T11:56:23;22.30;73.40
37658;DHT22;23500;53.268;8.308;2023-07-30T11:58:50;22.30;73.50
37658;DHT22;23500;53.268;8.308;2023-07-30T12:01:17;22.30;73.50
37658;DHT22;23500;53.268;8.308;2023-07-30T12:03:43;22.40;73.50
37658;DHT22;23500;53.268;8.308;2023-07-30T12:06:10;22.40;73.50
37658;DHT22;23500;53.268;8.308;2023-07-30T12:08:36;22.40;73.50
37658;DHT22;23500;53.268;8.308;2023-07-30T12:11:07;22.40;73.50
37658;DHT22;23500;53.268;8.308;2023-07-30T12:13:33;22.40;73.40
37658;DHT22;23500;53.268;8.308;2023-07-30T12:15:59;22.50;73.30
37658;DHT22;23500;53.268;8.308;2023-07-30T12:18:26;22.50;73.20
37658;DHT22;23500;53.268;8.308;2023-07-30T12:20:53;22.50;73.20
37658;DHT22;23500;53.268;8.308;2023-07-30T12:23:20;22.50;73.80
37658;DHT22;23500;53.268;8.308;2023-07-30T12:25:46;22.60;73.10
37658;DHT22;23500;53.268;8.308;2023-07-30T12:28:12;22.60;73.10
37658;DHT22;23500;53.268;8.308;2023-07-30T12:30:38;22.60;73.20
37658;DHT22;23500;53.268;8.308;2023-07-30T12:33:05;22.60;73.10
37658;DHT22;23500;53.268;8.308;2023-07-30T12:35:31;22.60;73.10
37658;DHT22;23500;53.268;8.308;2023-07-30T12:37:58;22.50;73.20
37658;DHT22;23500;53.268;8.308;2023-07-30T12:40:24;22.50;73.40
37658;DHT22;23500;53.268;8.308;2023-07-30T12:42:49;22.60;73.20
37658;DHT22;23500;53.268;8.308;2023-07-30T12:45:15;22.60;73.20
37658;DHT22;23500;53.268;8.308;2023-07-30T12:47:41;22.60;73.10
37658;DHT22;23500;53.268;8.308;2023-07-30T12:50:07;22.60;73.00
37658;DHT22;23500;53.268;8.308;2023-07-30T12:52:34;22.70;73.00
37658;DHT22;23500;53.268;8.308;2023-07-30T12:55:00;22.70;72.90
37658;DHT22;23500;53.268;8.308;2023-07-30T12:57:26;22.70;72.90
37658;DHT22;23500;53.268;8.308;2023-07-30T12:59:51;22.70;72.90
37658;DHT22;23500;53.268;8.308;2023-07-30T13:02:17;22.60;73.00
37658;DHT22;23500;53.268;8.308;2023-07-30T13:04:43;22.60;73.20
37658;DHT22;23500;53.268;8.308;2023-07-30T13:07:08;22.60;73.20
37658;DHT22;23500;53.268;8.308;2023-07-30T13:09:34;22.50;73.20
37658;DHT22;23500;53.268;8.308;2023-07-30T13:12:00;22.50;73.30
37658;DHT22;23500;53.268;8.308;2023-07-30T13:14:25;22.50;73.40
37658;DHT22;23500;53.268;8.308;2023-07-30T13:16:51;22.50;73.50
37658;DHT22;23500;53.268;8.308;2023-07-30T13:19:17;22.50;73.50
37658;DHT22;23500;53.268;8.308;2023-07-30T13:21:42;22.50;73.60
37658;DHT22;23500;53.268;8.308;2023-07-30T13:24:08;22.50;73.60
37658;DHT22;23500;53.268;8.308;2023-07-30T13:26:35;22.50;73.60
37658;DHT22;23500;53.268;8.308;2023-07-30T13:29:01;22.50;73.50
37658;DHT22;23500;53.268;8.308;2023-07-30T13:31:26;22.50;73.60
37658;DHT22;23500;53.268;8.308;2023-07-30T13:33:52;22.50;73.60
37658;DHT22;23500;53.268;8.308;2023-07-30T13:36:18;22.50;73.60
37658;DHT22;23500;53.268;8.308;2023-07-30T13:38:44;22.50;73.60
37658;DHT22;23500;53.268;8.308;2023-07-30T13:41:10;22.50;73.70
37658;DHT22;23500;53.268;8.308;2023-07-30T13:43:36;22.50;73.80
37658;DHT22;23500;53.268;8.308;2023-07-30T13:46:01;22.50;73.80
37658;DHT22;23500;53.268;8.308;2023-07-30T13:48:27;22.50;73.70
37658;DHT22;23500;53.268;8.308;2023-07-30T13:50:53;22.40;73.80
37658;DHT22;23500;53.268;8.308;2023-07-30T13:53:19;22.40;73.80
37658;DHT22;23500;53.268;8.308;2023-07-30T13:55:45;22.40;73.90
37658;DHT22;23500;53.268;8.308;2023-07-30T13:58:11;22.40;73.90
37658;DHT22;23500;53.268;8.308;2023-07-30T14:00:39;22.40;73.90
37658;DHT22;23500;53.268;8.308;2023-07-30T14:03:04;22.40;73.80
37658;DHT22;23500;53.268;8.308;2023-07-30T14:05:30;22.40;73.80
37658;DHT22;23500;53.268;8.308;2023-07-30T14:07:56;22.40;73.80
37658;DHT22;23500;53.268;8.308;2023-07-30T14:10:23;22.40;73.90
37658;DHT22;23500;53.268;8.308;2023-07-30T14:12:48;22.40;73.80
37658;DHT22;23500;53.268;8.308;2023-07-30T14:15:14;22.40;73.90
37658;DHT22;23500;53.268;8.308;2023-07-30T14:17:41;22.40;73.80
37658;DHT22;23500;53.268;8.308;2023-07-30T14:20:07;22.50;73.80
37658;DHT22;23500;53.268;8.308;2023-07-30T14:22:34;22.60;73.70
37658;DHT22;23500;53.268;8.308;2023-07-30T14:25:01;22.60;73.50
37658;DHT22;23500;53.268;8.308;2023-07-30T14:27:26;22.70;73.60
37658;DHT22;23500;53.268;8.308;2023-07-30T14:29:52;22.70;73.60
37658;DHT22;23500;53.268;8.308;2023-07-30T14:32:19;22.70;73.40
37658;DHT22;23500;53.268;8.308;2023-07-30T14:34:45;22.70;73.40
37658;DHT22;23500;53.268;8.308;2023-07-30T14:37:11;22.70;73.40
37658;DHT22;23500;53.268;8.308;2023-07-30T14:39:38;22.70;73.40
37658;DHT22;23500;53.268;8.308;2023-07-30T14:42:05;22.70;73.40
37658;DHT22;23500;53.268;8.308;2023-07-30T14:44:30;22.60;73.50
37658;DHT22;23500;53.268;8.308;2023-07-30T14:46:56;22.60;73.50
37658;DHT22;23500;53.268;8.308;2023-07-30T14:49:23;22.60;73.70
37658;DHT22;23500;53.268;8.308;2023-07-30T14:51:49;22.60;73.70
37658;DHT22;23500;53.268;8.308;2023-07-30T14:54:17;22.60;73.70
37658;DHT22;23500;53.268;8.308;2023-07-30T14:56:43;22.60;73.70
37658;DHT22;23500;53.268;8.308;2023-07-30T14:59:09;22.60;73.70
37658;DHT22;23500;53.268;8.308;2023-07-30T15:01:35;22.60;73.70
37658;DHT22;23500;53.268;8.308;2023-07-30T15:04:01;22.60;73.70
37658;DHT22;23500;53.268;8.308;2023-07-30T15:06:26;22.60;73.50
37658;DHT22;23500;53.268;8.308;2023-07-30T15:08:55;22.60;73.50
37658;DHT22;23500;53.268;8.308;2023-07-30T15:11:21;22.60;73.40
37658;DHT22;23500;53.268;8.308;2023-07-30T15:13:46;22.60;73.30
37658;DHT22;23500;53.268;8.308;2023-07-30T15:16:12;22.60;73.40
37658;DHT22;23500;53.268;8.308;2023-07-30T15:18:37;22.60;73.50
37658;DHT22;23500;53.268;8.308;2023-07-30T15:21:03;22.60;73.60
37658;DHT22;23500;53.268;8.308;2023-07-30T15:23:29;22.60;73.60
37658;DHT22;23500;53.268;8.308;2023-07-30T15:25:54;22.60;73.60
37658;DHT22;23500;53.268;8.308;2023-07-30T15:28:20;22.60;73.50
37658;DHT22;23500;53.268;8.308;2023-07-30T15:30:46;22.60;73.50
37658;DHT22;23500;53.268;8.308;2023-07-30T15:33:12;22.60;73.60